sensor_id;sensor_type;location;lat;lon;timestamp;temperature;humidity
47861;HTU21D;33620;52.340;5.984;2023-02-05T00:01:39;7.46;91.50
47861;HTU21D;33620;52.340;5.984;2023-02-05T00:04:05;7.48;91.69
47861;HTU21D;33620;52.340;5.984;2023-02-05T00:06:30;7.52;91.62
47861;HTU21D;33620;52.340;5.984;2023-02-05T00:08:56;7.55;91.62
47861;HTU21D;33620;52.340;5.984;2023-02-05T00:11:22;7.53;91.14
47861;HTU21D;33620;52.340;5.984;2023-02-05T00:13:48;7.48;91.21
47861;HTU21D;33620;52.340;5.984;2023-02-05T00:16:18;7.48;91.27
47861;HTU21D;33620;52.340;5.984;2023-02-05T00:18:44;7.47;91.34
47861;HTU21D;33620;52.340;5.984;2023-02-05T00:21:10;7.45;91.20
47861;HTU21D;33620;52.340;5.984;2023-02-05T00:23:36;7.40;91.12
47861;HTU21D;33620;52.340;5.984;2023-02-05T00:26:03;7.37;91.34
47861;HTU21D;33620;52.340;5.984;2023-02-05T00:28:33;7.40;91.60
47861;HTU21D;33620;52.340;5.984;2023-02-05T00:30:59;7.40;91.67
47861;HTU21D;33620;52.340;5.984;2023-02-05T00:33:24;7.40;91.83
47861;HTU21D;33620;52.340;5.984;2023-02-05T00:35:50;7.43;91.86
47861;HTU21D;33620;52.340;5.984;2023-02-05T00:38:15;7.44;91.90
47861;HTU21D;33620;52.340;5.984;2023-02-05T00:40:41;7.44;91.88
47861;HTU21D;33620;52.340;5.984;2023-02-05T00:43:07;7.45;91.85
47861;HTU21D;33620;52.340;5.984;2023-02-05T00:45:32;7.42;91.65
47861;HTU21D;33620;52.340;5.984;2023-02-05T00:48:03;7.40;91.66
47861;HTU21D;33620;52.340;5.984;2023-02-05T00:50:29;7.40;91.69
47861;HTU21D;33620;52.340;5.984;2023-02-05T00:52:54;7.37;91.63
47861;HTU21D;33620;52.340;5.984;2023-02-05T00:55:20;7.37;91.85
47861;HTU21D;33620;52.340;5.984;2023-02-05T00:57:45;7.38;91.85
47861;HTU21D;33620;52.340;5.984;2023-02-05T01:00:11;7.39;91.77
47861;HTU21D;33620;52.340;5.984;2023-02-05T01:02:37;7.39;91.79
47861;HTU21D;33620;52.340;5.984;2023-02-05T01:05:02;7.32;91.68
47861;HTU21D;33620;52.340;5.984;2023-02-05T01:07:27;7.30;91.88
47861;HTU21D;33620;52.340;5.984;2023-02-05T01:09:53;7.28;91.91
47861;HTU21D;33620;52.340;5.984;2023-02-05T01:12:18;7.27;91.87
47861;HTU21D;33620;52.340;5.984;2023-02-05T01:14:44;7.24;92.01
47861;HTU21D;33620;52.340;5.984;2023-02-05T01:17:09;7.23;92.15
47861;HTU21D;33620;52.340;5.984;2023-02-05T01:19:35;7.19;92.43
47861;HTU21D;33620;52.340;5.984;2023-02-05T01:22:00;7.23;92.76
47861;HTU21D;33620;52.340;5.984;2023-02-05T01:24:26;7.25;92.85
47861;HTU21D;33620;52.340;5.984;2023-02-05T01:26:51;7.25;92.96
47861;HTU21D;33620;52.340;5.984;2023-02-05T01:29:21;7.28;93.28
47861;HTU21D;33620;52.340;5.984;2023-02-05T01:31:46;7.27;93.39
47861;HTU21D;33620;52.340;5.984;2023-02-05T01:34:12;7.29;93.69
47861;HTU21D;33620;52.340;5.984;2023-02-05T01:36:37;7.30;93.78
47861;HTU21D;33620;52.340;5.984;2023-02-05T01:39:02;7.33;93.83
47861;HTU21D;33620;52.340;5.984;2023-02-05T01:41:28;7.35;94.03
47861;HTU21D;33620;52.340;5.984;2023-02-05T01:44:14;7.37;94.22
47861;HTU21D;33620;52.340;5.984;2023-02-05T01:46:44;7.40;94.36
47861;HTU21D;33620;52.340;5.984;2023-02-05T01:49:15;7.42;94.55
47861;HTU21D;33620;52.340;5.984;2023-02-05T01:51:42;7.44;94.81
47861;HTU21D;33620;52.340;5.984;2023-02-05T01:54:09;7.44;94.91
47861;HTU21D;33620;52.340;5.984;2023-02-05T01:56:41;7.46;94.94
47861;HTU21D;33620;52.340;5.984;2023-02-05T01:59:19;7.46;95.11
47861;HTU21D;33620;52.340;5.984;2023-02-05T02:01:46;7.47;95.35
47861;HTU21D;33620;52.340;5.984;2023-02-05T02:04:14;7.50;95.58
47861;HTU21D;33620;52.340;5.984;2023-02-05T02:06:41;7.55;95.63
47861;HTU21D;33620;52.340;5.984;2023-02-05T02:09:06;7.58;95.46
47861;HTU21D;33620;52.340;5.984;2023-02-05T02:11:36;7.58;95.43
47861;HTU21D;33620;52.340;5.984;2023-02-05T02:14:04;7.59;95.60
47861;HTU21D;33620;52.340;5.984;2023-02-05T02:16:32;7.61;95.49
47861;HTU21D;33620;52.340;5.984;2023-02-05T02:19:00;7.63;95.39
47861;HTU21D;33620;52.340;5.984;2023-02-05T02:22:10;7.62;95.38
47861;HTU21D;33620;52.340;5.984;2023-02-05T02:25:13;7.61;95.44
47861;HTU21D;33620;52.340;5.984;2023-02-05T02:28:13;7.58;95.52
47861;HTU21D;33620;52.340;5.984;2023-02-05T02:33:51;7.59;95.55
47861;HTU21D;33620;52.340;5.984;2023-02-05T02:36:31;7.55;95.63
47861;HTU21D;33620;52.340;5.984;2023-02-05T02:41:41;7.49;95.90
47861;HTU21D;33620;52.340;5.984;2023-02-05T02:44:14;7.48;96.14
47861;HTU21D;33620;52.340;5.984;2023-02-05T02:46:45;7.45;96.36
47861;HTU21D;33620;52.340;5.984;2023-02-05T02:49:18;7.44;96.48
47861;HTU21D;33620;52.340;5.984;2023-02-05T02:51:45;7.44;96.77
47861;HTU21D;33620;52.340;5.984;2023-02-05T02:54:16;7.43;96.84
47861;HTU21D;33620;52.340;5.984;2023-02-05T02:56:43;7.44;97.03
47861;HTU21D;33620;52.340;5.984;2023-02-05T02:59:14;7.46;97.07
47861;HTU21D;33620;52.340;5.984;2023-02-05T03:01:42;7.47;97.10
47861;HTU21D;33620;52.340;5.984;2023-02-05T03:04:20;7.48;96.98
47861;HTU21D;33620;52.340;5.984;2023-02-05T03:06:50;7.49;97.00
47861;HTU21D;33620;52.340;5.984;2023-02-05T03:12:32;7.47;96.96
47861;HTU21D;33620;52.340;5.984;2023-02-05T03:14:58;7.48;96.97
47861;HTU21D;33620;52.340;5.984;2023-02-05T03:17:25;7.47;97.02
47861;HTU21D;33620;52.340;5.984;2023-02-05T03:20:19;7.46;97.16
47861;HTU21D;33620;52.340;5.984;2023-02-05T03:22:46;7.43;97.13
47861;HTU21D;33620;52.340;5.984;2023-02-05T03:25:12;7.43;97.15
47861;HTU21D;33620;52.340;5.984;2023-02-05T03:27:37;7.43;97.31
47861;HTU21D;33620;52.340;5.984;2023-02-05T03:30:04;7.40;97.52
47861;HTU21D;33620;52.340;5.984;2023-02-05T03:45:57;7.41;97.87
47861;HTU21D;33620;52.340;5.984;2023-02-05T03:48:36;7.40;97.81
47861;HTU21D;33620;52.340;5.984;2023-02-05T03:51:22;7.43;97.75
47861;HTU21D;33620;52.340;5.984;2023-02-05T03:56:27;7.43;97.56
47861;HTU21D;33620;52.340;5.984;2023-02-05T03:58:56;7.43;97.49
47861;HTU21D;33620;52.340;5.984;2023-02-05T04:01:23;7.44;97.42
47861;HTU21D;33620;52.340;5.984;2023-02-05T04:03:49;7.43;97.48
47861;HTU21D;33620;52.340;5.984;2023-02-05T04:06:14;7.44;97.43
47861;HTU21D;33620;52.340;5.984;2023-02-05T04:08:39;7.42;97.37
47861;HTU21D;33620;52.340;5.984;2023-02-05T04:11:05;7.39;97.43
47861;HTU21D;33620;52.340;5.984;2023-02-05T04:13:31;7.39;97.39
47861;HTU21D;33620;52.340;5.984;2023-02-05T04:15:56;7.40;97.40
47861;HTU21D;33620;52.340;5.984;2023-02-05T04:18:22;7.41;97.41
47861;HTU21D;33620;52.340;5.984;2023-02-05T04:20:48;7.42;97.28
47861;HTU21D;33620;52.340;5.984;2023-02-05T04:23:13;7.41;97.26
47861;HTU21D;33620;52.340;5.984;2023-02-05T04:25:39;7.41;97.27
47861;HTU21D;33620;52.340;5.984;2023-02-05T04:28:05;7.45;97.30
47861;HTU21D;33620;52.340;5.984;2023-02-05T04:30:31;7.41;97.20
47861;HTU21D;33620;52.340;5.984;2023-02-05T04:32:57;7.39;97.23
47861;HTU21D;33620;52.340;5.984;2023-02-05T04:35:22;7.38;97.34
47861;HTU21D;33620;52.340;5.984;2023-02-05T04:37:48;7.35;97.36
47861;HTU21D;33620;52.340;5.984;2023-02-05T04:40:13;7.31;97.61
47861;HTU21D;33620;52.340;5.984;2023-02-05T04:42:39;7.32;97.70
47861;HTU21D;33620;52.340;5.984;2023-02-05T04:45:04;7.31;97.83
47861;HTU21D;33620;52.340;5.984;2023-02-05T04:47:30;7.27;97.73
47861;HTU21D;33620;52.340;5.984;2023-02-05T04:49:56;7.29;97.90
47861;HTU21D;33620;52.340;5.984;2023-02-05T04:52:21;7.32;97.89
47861;HTU21D;33620;52.340;5.984;2023-02-05T04:54:46;7.31;97.74
47861;HTU21D;33620;52.340;5.984;2023-02-05T04:57:12;7.33;97.80
47861;HTU21D;33620;52.340;5.984;2023-02-05T04:59:37;7.31;97.76
47861;HTU21D;33620;52.340;5.984;2023-02-05T05:02:03;7.30;97.78
47861;HTU21D;33620;52.340;5.984;2023-02-05T05:04:28;7.28;97.73
47861;HTU21D;33620;52.340;5.984;2023-02-05T05:06:53;7.26;97.90
47861;HTU21D;33620;52.340;5.984;2023-02-05T05:09:19;7.26;97.98
47861;HTU21D;33620;52.340;5.984;2023-02-05T05:11:49;7.27;97.92
47861;HTU21D;33620;52.340;5.984;2023-02-05T05:14:14;7.27;97.95
47861;HTU21D;33620;52.340;5.984;2023-02-05T05:16:40;7.29;98.00
47861;HTU21D;33620;52.340;5.984;2023-02-05T05:19:05;7.30;97.96
47861;HTU21D;33620;52.340;5.984;2023-02-05T05:21:30;7.30;97.94
47861;HTU21D;33620;52.340;5.984;2023-02-05T05:23:56;7.30;97.90
47861;HTU21D;33620;52.340;5.984;2023-02-05T05:26:21;7.30;97.85
47861;HTU21D;33620;52.340;5.984;2023-02-05T05:28:46;7.27;97.74
47861;HTU21D;33620;52.340;5.984;2023-02-05T05:31:14;7.29;97.84
47861;HTU21D;33620;52.340;5.984;2023-02-05T05:33:44;7.32;98.02
47861;HTU21D;33620;52.340;5.984;2023-02-05T05:36:10;7.35;97.90
47861;HTU21D;33620;52.340;5.984;2023-02-05T05:38:36;7.38;97.87
47861;HTU21D;33620;52.340;5.984;2023-02-05T05:41:01;7.40;97.83
47861;HTU21D;33620;52.340;5.984;2023-02-05T05:43:46;7.39;97.74
47861;HTU21D;33620;52.340;5.984;2023-02-05T05:46:14;7.41;97.49
47861;HTU21D;33620;52.340;5.984;2023-02-05T05:48:40;7.38;97.26
47861;HTU21D;33620;52.340;5.984;2023-02-05T05:51:06;7.30;97.12
47861;HTU21D;33620;52.340;5.984;2023-02-05T05:53:31;7.24;96.59
47861;HTU21D;33620;52.340;5.984;2023-02-05T05:55:57;7.13;95.98
47861;HTU21D;33620;52.340;5.984;2023-02-05T05:58:22;7.10;95.63
47861;HTU21D;33620;52.340;5.984;2023-02-05T06:00:48;7.00;95.43
47861;HTU21D;33620;52.340;5.984;2023-02-05T06:03:13;6.97;95.66
47861;HTU21D;33620;52.340;5.984;2023-02-05T06:05:38;6.95;95.45
47861;HTU21D;33620;52.340;5.984;2023-02-05T06:08:04;6.93;95.43
47861;HTU21D;33620;52.340;5.984;2023-02-05T06:10:31;6.89;95.14
47861;HTU21D;33620;52.340;5.984;2023-02-05T06:12:57;6.75;94.77
47861;HTU21D;33620;52.340;5.984;2023-02-05T06:15:23;6.76;94.91
47861;HTU21D;33620;52.340;5.984;2023-02-05T06:17:51;6.65;94.67
47861;HTU21D;33620;52.340;5.984;2023-02-05T06:20:16;6.60;94.86
47861;HTU21D;33620;52.340;5.984;2023-02-05T06:22:41;6.55;94.92
47861;HTU21D;33620;52.340;5.984;2023-02-05T06:25:07;6.53;94.91
47861;HTU21D;33620;52.340;5.984;2023-02-05T06:27:32;6.49;94.73
47861;HTU21D;33620;52.340;5.984;2023-02-05T06:29:58;6.50;94.75
47861;HTU21D;33620;52.340;5.984;2023-02-05T06:32:23;6.43;94.58
47861;HTU21D;33620;52.340;5.984;2023-02-05T06:34:49;6.48;94.54
47861;HTU21D;33620;52.340;5.984;2023-02-05T06:37:14;6.48;94.41
47861;HTU21D;33620;52.340;5.984;2023-02-05T06:39:40;6.46;94.43
47861;HTU21D;33620;52.340;5.984;2023-02-05T06:42:05;6.44;94.43
47861;HTU21D;33620;52.340;5.984;2023-02-05T06:44:31;6.44;94.32
47861;HTU21D;33620;52.340;5.984;2023-02-05T06:46:57;6.45;94.45
47861;HTU21D;33620;52.340;5.984;2023-02-05T06:49:23;6.39;94.46
47861;HTU21D;33620;52.340;5.984;2023-02-05T06:51:48;6.40;94.66
47861;HTU21D;33620;52.340;5.984;2023-02-05T06:54:13;6.38;94.73
47861;HTU21D;33620;52.340;5.984;2023-02-05T06:56:39;6.43;94.79
47861;HTU21D;33620;52.340;5.984;2023-02-05T06:59:04;6.39;94.60
47861;HTU21D;33620;52.340;5.984;2023-02-05T07:01:30;6.36;94.56
47861;HTU21D;33620;52.340;5.984;2023-02-05T07:03:55;6.35;94.56
47861;HTU21D;33620;52.340;5.984;2023-02-05T07:06:21;6.34;94.65
47861;HTU21D;33620;52.340;5.984;2023-02-05T07:08:50;6.36;94.56
47861;HTU21D;33620;52.340;5.984;2023-02-05T07:11:16;6.25;94.16
47861;HTU21D;33620;52.340;5.984;2023-02-05T07:13:41;6.26;94.36
47861;HTU21D;33620;52.340;5.984;2023-02-05T07:16:07;6.31;94.36
47861;HTU21D;33620;52.340;5.984;2023-02-05T07:18:33;6.29;94.36
47861;HTU21D;33620;52.340;5.984;2023-02-05T07:20:59;6.34;94.52
47861;HTU21D;33620;52.340;5.984;2023-02-05T07:23:24;6.37;94.59
47861;HTU21D;33620;52.340;5.984;2023-02-05T07:25:50;6.34;94.46
47861;HTU21D;33620;52.340;5.984;2023-02-05T07:28:15;6.34;94.50
47861;HTU21D;33620;52.340;5.984;2023-02-05T07:30:40;6.36;94.62
47861;HTU21D;33620;52.340;5.984;2023-02-05T07:33:06;6.38;94.58
47861;HTU21D;33620;52.340;5.984;2023-02-05T07:35:32;6.39;94.59
47861;HTU21D;33620;52.340;5.984;2023-02-05T07:37:59;6.39;94.49
47861;HTU21D;33620;52.340;5.984;2023-02-05T07:40:24;6.42;94.46
47861;HTU21D;33620;52.340;5.984;2023-02-05T07:42:50;6.39;94.21
47861;HTU21D;33620;52.340;5.984;2023-02-05T07:45:15;6.35;94.23
47861;HTU21D;33620;52.340;5.984;2023-02-05T07:47:40;6.36;94.13
47861;HTU21D;33620;52.340;5.984;2023-02-05T07:50:06;6.41;94.20
47861;HTU21D;33620;52.340;5.984;2023-02-05T07:52:32;6.42;94.17
47861;HTU21D;33620;52.340;5.984;2023-02-05T07:54:57;6.44;94.17
47861;HTU21D;33620;52.340;5.984;2023-02-05T07:57:23;6.41;94.14
47861;HTU21D;33620;52.340;5.984;2023-02-05T07:59:48;6.45;94.30
47861;HTU21D;33620;52.340;5.984;2023-02-05T08:02:13;6.44;94.26
47861;HTU21D;33620;52.340;5.984;2023-02-05T08:04:39;6.46;94.39
47861;HTU21D;33620;52.340;5.984;2023-02-05T08:07:04;6.51;94.47
47861;HTU21D;33620;52.340;5.984;2023-02-05T08:09:30;6.53;94.58
47861;HTU21D;33620;52.340;5.984;2023-02-05T08:11:55;6.50;94.47
47861;HTU21D;33620;52.340;5.984;2023-02-05T08:14:20;6.55;94.50
47861;HTU21D;33620;52.340;5.984;2023-02-05T08:16:46;6.52;94.62
47861;HTU21D;33620;52.340;5.984;2023-02-05T08:19:13;6.55;94.80
47861;HTU21D;33620;52.340;5.984;2023-02-05T08:21:39;6.58;95.01
47861;HTU21D;33620;52.340;5.984;2023-02-05T08:24:05;6.53;94.81
47861;HTU21D;33620;52.340;5.984;2023-02-05T08:26:30;6.54;94.86
47861;HTU21D;33620;52.340;5.984;2023-02-05T08:28:56;6.55;94.68
47861;HTU21D;33620;52.340;5.984;2023-02-05T08:31:21;6.56;94.65
47861;HTU21D;33620;52.340;5.984;2023-02-05T08:33:46;6.59;94.57
47861;HTU21D;33620;52.340;5.984;2023-02-05T08:36:14;6.56;94.56
47861;HTU21D;33620;52.340;5.984;2023-02-05T08:38:40;6.59;94.35
47861;HTU21D;33620;52.340;5.984;2023-02-05T08:41:07;6.60;94.30
47861;HTU21D;33620;52.340;5.984;2023-02-05T08:43:37;6.66;94.07
47861;HTU21D;33620;52.340;5.984;2023-02-05T08:46:03;6.67;93.86
47861;HTU21D;33620;52.340;5.984;2023-02-05T08:48:29;6.61;93.38
47861;HTU21D;33620;52.340;5.984;2023-02-05T08:50:54;6.64;92.84
47861;HTU21D;33620;52.340;5.984;2023-02-05T08:53:20;6.63;92.53
47861;HTU21D;33620;52.340;5.984;2023-02-05T08:55:56;6.66;92.42
47861;HTU21D;33620;52.340;5.984;2023-02-05T08:58:23;6.72;92.40
47861;HTU21D;33620;52.340;5.984;2023-02-05T09:00:48;6.73;92.18
47861;HTU21D;33620;52.340;5.984;2023-02-05T09:03:14;6.79;92.20
47861;HTU21D;33620;52.340;5.984;2023-02-05T09:05:39;6.81;91.99
47861;HTU21D;33620;52.340;5.984;2023-02-05T09:08:05;6.87;92.01
47861;HTU21D;33620;52.340;5.984;2023-02-05T09:10:30;6.88;91.63
47861;HTU21D;33620;52.340;5.984;2023-02-05T09:12:56;6.90;91.71
47861;HTU21D;33620;52.340;5.984;2023-02-05T09:15:21;6.97;91.67
47861;HTU21D;33620;52.340;5.984;2023-02-05T09:17:46;6.96;91.53
47861;HTU21D;33620;52.340;5.984;2023-02-05T09:20:12;6.90;90.95
47861;HTU21D;33620;52.340;5.984;2023-02-05T09:22:37;7.00;91.27
47861;HTU21D;33620;52.340;5.984;2023-02-05T09:25:04;7.00;90.80
47861;HTU21D;33620;52.340;5.984;2023-02-05T09:27:30;7.07;90.97
47861;HTU21D;33620;52.340;5.984;2023-02-05T09:29:56;7.07;90.74
47861;HTU21D;33620;52.340;5.984;2023-02-05T09:32:21;7.10;90.82
47861;HTU21D;33620;52.340;5.984;2023-02-05T09:34:47;7.12;90.60
47861;HTU21D;33620;52.340;5.984;2023-02-05T09:37:14;7.03;89.15
47861;HTU21D;33620;52.340;5.984;2023-02-05T09:39:39;7.08;89.19
47861;HTU21D;33620;52.340;5.984;2023-02-05T09:45:01;7.18;89.62
47861;HTU21D;33620;52.340;5.984;2023-02-05T09:47:30;7.15;87.99
47861;HTU21D;33620;52.340;5.984;2023-02-05T09:50:12;7.14;86.25
47861;HTU21D;33620;52.340;5.984;2023-02-05T09:52:44;7.22;86.60
47861;HTU21D;33620;52.340;5.984;2023-02-05T09:55:18;7.27;86.12
47861;HTU21D;33620;52.340;5.984;2023-02-05T09:57:44;7.30;85.70
47861;HTU21D;33620;52.340;5.984;2023-02-05T10:00:19;7.30;85.42
47861;HTU21D;33620;52.340;5.984;2023-02-05T10:02:50;7.33;85.04
47861;HTU21D;33620;52.340;5.984;2023-02-05T10:05:20;7.38;85.38
47861;HTU21D;33620;52.340;5.984;2023-02-05T10:08:17;7.41;85.71
47861;HTU21D;33620;52.340;5.984;2023-02-05T10:10:49;7.45;85.15
47861;HTU21D;33620;52.340;5.984;2023-02-05T10:13:34;7.50;85.09
47861;HTU21D;33620;52.340;5.984;2023-02-05T10:19:02;7.59;84.59
47861;HTU21D;33620;52.340;5.984;2023-02-05T10:21:34;7.64;84.81
47861;HTU21D;33620;52.340;5.984;2023-02-05T10:24:09;7.65;84.52
47861;HTU21D;33620;52.340;5.984;2023-02-05T10:32:08;7.67;83.69
47861;HTU21D;33620;52.340;5.984;2023-02-05T10:34:55;7.64;83.38
47861;HTU21D;33620;52.340;5.984;2023-02-05T10:37:29;7.65;83.49
47861;HTU21D;33620;52.340;5.984;2023-02-05T10:39:56;7.68;83.29
47861;HTU21D;33620;52.340;5.984;2023-02-05T10:42:34;7.72;83.39
47861;HTU21D;33620;52.340;5.984;2023-02-05T10:47:44;7.75;82.55
47861;HTU21D;33620;52.340;5.984;2023-02-05T10:50:29;7.76;82.39
47861;HTU21D;33620;52.340;5.984;2023-02-05T10:52:57;7.79;83.23
47861;HTU21D;33620;52.340;5.984;2023-02-05T10:55:22;7.82;83.30
47861;HTU21D;33620;52.340;5.984;2023-02-05T10:57:47;7.86;83.04
47861;HTU21D;33620;52.340;5.984;2023-02-05T11:00:16;7.87;82.81
47861;HTU21D;33620;52.340;5.984;2023-02-05T11:02:46;7.82;82.27
47861;HTU21D;33620;52.340;5.984;2023-02-05T11:05:40;7.84;82.49
47861;HTU21D;33620;52.340;5.984;2023-02-05T11:08:36;7.78;80.87
47861;HTU21D;33620;52.340;5.984;2023-02-05T11:11:03;7.87;81.52
47861;HTU21D;33620;52.340;5.984;2023-02-05T11:13:30;7.94;81.27
47861;HTU21D;33620;52.340;5.984;2023-02-05T11:15:58;7.96;80.90
47861;HTU21D;33620;52.340;5.984;2023-02-05T11:18:35;7.86;79.62
47861;HTU21D;33620;52.340;5.984;2023-02-05T11:21:03;7.88;79.50
47861;HTU21D;33620;52.340;5.984;2023-02-05T11:23:30;7.99;79.91
47861;HTU21D;33620;52.340;5.984;2023-02-05T11:25:59;8.01;80.01
47861;HTU21D;33620;52.340;5.984;2023-02-05T11:28:33;7.99;79.88
47861;HTU21D;33620;52.340;5.984;2023-02-05T11:31:23;8.00;80.33
47861;HTU21D;33620;52.340;5.984;2023-02-05T11:33:50;8.02;80.46
47861;HTU21D;33620;52.340;5.984;2023-02-05T11:36:20;7.99;79.98
47861;HTU21D;33620;52.340;5.984;2023-02-05T11:38:52;8.00;79.94
47861;HTU21D;33620;52.340;5.984;2023-02-05T11:41:32;8.01;79.70
47861;HTU21D;33620;52.340;5.984;2023-02-05T11:44:17;8.03;79.87
47861;HTU21D;33620;52.340;5.984;2023-02-05T11:46:44;8.08;79.61
47861;HTU21D;33620;52.340;5.984;2023-02-05T11:49:19;8.14;78.56
47861;HTU21D;33620;52.340;5.984;2023-02-05T11:51:48;8.16;77.64
47861;HTU21D;33620;52.340;5.984;2023-02-05T11:54:25;8.17;77.29
47861;HTU21D;33620;52.340;5.984;2023-02-05T11:57:26;8.28;77.62
47861;HTU21D;33620;52.340;5.984;2023-02-05T11:59:54;8.31;77.13
47861;HTU21D;33620;52.340;5.984;2023-02-05T12:05:03;8.47;75.66
47861;HTU21D;33620;52.340;5.984;2023-02-05T12:07:38;8.57;76.03
47861;HTU21D;33620;52.340;5.984;2023-02-05T12:10:16;8.61;76.08
47861;HTU21D;33620;52.340;5.984;2023-02-05T12:15:24;8.53;76.66
47861;HTU21D;33620;52.340;5.984;2023-02-05T12:20:33;8.46;77.04
47861;HTU21D;33620;52.340;5.984;2023-02-05T12:34:48;8.55;77.46
47861;HTU21D;33620;52.340;5.984;2023-02-05T12:37:48;8.60;75.96
47861;HTU21D;33620;52.340;5.984;2023-02-05T12:40:58;8.63;75.22
47861;HTU21D;33620;52.340;5.984;2023-02-05T12:57:21;8.66;72.25
47861;HTU21D;33620;52.340;5.984;2023-02-05T12:59:52;8.67;72.80
47861;HTU21D;33620;52.340;5.984;2023-02-05T13:02:33;8.70;72.74
47861;HTU21D;33620;52.340;5.984;2023-02-05T13:07:42;8.75;72.48
47861;HTU21D;33620;52.340;5.984;2023-02-05T13:10:22;8.80;72.96
47861;HTU21D;33620;52.340;5.984;2023-02-05T13:12:51;8.80;72.11
47861;HTU21D;33620;52.340;5.984;2023-02-05T13:18:04;8.76;70.35
47861;HTU21D;33620;52.340;5.984;2023-02-05T13:20:36;8.76;71.33
47861;HTU21D;33620;52.340;5.984;2023-02-05T13:23:22;8.85;71.34
47861;HTU21D;33620;52.340;5.984;2023-02-05T13:26:38;8.88;70.87
47861;HTU21D;33620;52.340;5.984;2023-02-05T13:29:28;8.94;71.22
47861;HTU21D;33620;52.340;5.984;2023-02-05T13:32:04;8.98;70.28
47861;HTU21D;33620;52.340;5.984;2023-02-05T13:34:34;8.98;70.14
47861;HTU21D;33620;52.340;5.984;2023-02-05T13:37:22;9.00;69.97
47861;HTU21D;33620;52.340;5.984;2023-02-05T13:53:51;8.86;70.07
47861;HTU21D;33620;52.340;5.984;2023-02-05T13:56:40;8.91;69.94
47861;HTU21D;33620;52.340;5.984;2023-02-05T13:59:22;8.94;69.67
47861;HTU21D;33620;52.340;5.984;2023-02-05T14:01:54;9.01;69.55
47861;HTU21D;33620;52.340;5.984;2023-02-05T14:04:38;9.09;69.72
47861;HTU21D;33620;52.340;5.984;2023-02-05T14:07:08;9.06;69.15
47861;HTU21D;33620;52.340;5.984;2023-02-05T14:09:40;8.94;69.52
47861;HTU21D;33620;52.340;5.984;2023-02-05T14:12:12;8.90;70.90
47861;HTU21D;33620;52.340;5.984;2023-02-05T14:22:48;8.90;71.06
47861;HTU21D;33620;52.340;5.984;2023-02-05T14:33:32;8.91;72.76
47861;HTU21D;33620;52.340;5.984;2023-02-05T14:41:21;8.92;72.58
47861;HTU21D;33620;52.340;5.984;2023-02-05T14:43:59;8.86;72.41
47861;HTU21D;33620;52.340;5.984;2023-02-05T14:46:40;8.81;72.06
47861;HTU21D;33620;52.340;5.984;2023-02-05T14:49:21;8.83;72.62
47861;HTU21D;33620;52.340;5.984;2023-02-05T14:51:52;8.74;71.53
47861;HTU21D;33620;52.340;5.984;2023-02-05T14:54:24;8.71;71.67
47861;HTU21D;33620;52.340;5.984;2023-02-05T14:56:53;8.70;71.94
47861;HTU21D;33620;52.340;5.984;2023-02-05T15:05:40;8.70;72.21
47861;HTU21D;33620;52.340;5.984;2023-02-05T15:11:03;8.60;71.07
47861;HTU21D;33620;52.340;5.984;2023-02-05T15:13:30;8.55;71.29
47861;HTU21D;33620;52.340;5.984;2023-02-05T15:21:30;8.56;71.45
47861;HTU21D;33620;52.340;5.984;2023-02-05T15:24:05;8.55;70.88
47861;HTU21D;33620;52.340;5.984;2023-02-05T15:26:45;8.57;70.56
47861;HTU21D;33620;52.340;5.984;2023-02-05T15:29:25;8.57;70.47
47861;HTU21D;33620;52.340;5.984;2023-02-05T15:31:54;8.58;70.36
47861;HTU21D;33620;52.340;5.984;2023-02-05T15:34:38;8.61;69.52
47861;HTU21D;33620;52.340;5.984;2023-02-05T15:42:05;8.59;69.43
47861;HTU21D;33620;52.340;5.984;2023-02-05T15:44:33;8.52;69.00
47861;HTU21D;33620;52.340;5.984;2023-02-05T15:47:01;8.46;68.56
47861;HTU21D;33620;52.340;5.984;2023-02-05T15:49:37;8.44;69.26
47861;HTU21D;33620;52.340;5.984;2023-02-05T15:52:04;8.44;69.41
47861;HTU21D;33620;52.340;5.984;2023-02-05T15:54:32;8.36;68.36
47861;HTU21D;33620;52.340;5.984;2023-02-05T15:56:58;8.38;69.21
47861;HTU21D;33620;52.340;5.984;2023-02-05T15:59:26;8.34;68.94
47861;HTU21D;33620;52.340;5.984;2023-02-05T16:02:32;8.34;69.44
47861;HTU21D;33620;52.340;5.984;2023-02-05T16:04:59;8.35;69.25
47861;HTU21D;33620;52.340;5.984;2023-02-05T16:07:34;8.33;69.17
47861;HTU21D;33620;52.340;5.984;2023-02-05T16:10:17;8.32;69.65
47861;HTU21D;33620;52.340;5.984;2023-02-05T16:13:03;8.29;69.98
47861;HTU21D;33620;52.340;5.984;2023-02-05T16:18:00;8.29;70.12
47861;HTU21D;33620;52.340;5.984;2023-02-05T16:20:36;8.26;70.39
47861;HTU21D;33620;52.340;5.984;2023-02-05T16:23:11;8.19;70.40
47861;HTU21D;33620;52.340;5.984;2023-02-05T16:25:51;8.19;71.03
47861;HTU21D;33620;52.340;5.984;2023-02-05T16:28:32;8.22;71.46
47861;HTU21D;33620;52.340;5.984;2023-02-05T16:31:00;8.16;71.86
47861;HTU21D;33620;52.340;5.984;2023-02-05T16:33:30;8.11;72.09
47861;HTU21D;33620;52.340;5.984;2023-02-05T16:35:59;8.06;72.39
47861;HTU21D;33620;52.340;5.984;2023-02-05T16:38:25;8.04;72.86
47861;HTU21D;33620;52.340;5.984;2023-02-05T16:40:54;8.02;73.16
47861;HTU21D;33620;52.340;5.984;2023-02-05T16:48:28;7.93;74.34
47861;HTU21D;33620;52.340;5.984;2023-02-05T16:50:53;7.91;74.57
47861;HTU21D;33620;52.340;5.984;2023-02-05T16:53:26;7.87;74.70
47861;HTU21D;33620;52.340;5.984;2023-02-05T16:55:58;7.90;74.94
47861;HTU21D;33620;52.340;5.984;2023-02-05T16:58:37;7.86;75.27
47861;HTU21D;33620;52.340;5.984;2023-02-05T17:01:07;7.85;75.45
47861;HTU21D;33620;52.340;5.984;2023-02-05T17:03:38;7.82;75.79
47861;HTU21D;33620;52.340;5.984;2023-02-05T17:06:11;7.79;76.37
47861;HTU21D;33620;52.340;5.984;2023-02-05T17:08:37;7.76;77.04
47861;HTU21D;33620;52.340;5.984;2023-02-05T17:11:05;7.76;77.45
47861;HTU21D;33620;52.340;5.984;2023-02-05T17:13:35;7.73;77.64
47861;HTU21D;33620;52.340;5.984;2023-02-05T17:19:02;7.70;78.24
47861;HTU21D;33620;52.340;5.984;2023-02-05T17:21:32;7.70;78.43
47861;HTU21D;33620;52.340;5.984;2023-02-05T17:23:58;7.64;78.88
47861;HTU21D;33620;52.340;5.984;2023-02-05T17:26:29;7.61;79.12
47861;HTU21D;33620;52.340;5.984;2023-02-05T17:29:06;7.61;79.46
47861;HTU21D;33620;52.340;5.984;2023-02-05T17:31:34;7.59;79.56
47861;HTU21D;33620;52.340;5.984;2023-02-05T17:34:00;7.63;79.57
47861;HTU21D;33620;52.340;5.984;2023-02-05T17:36:26;7.61;79.46
47861;HTU21D;33620;52.340;5.984;2023-02-05T17:38:51;7.60;79.43
47861;HTU21D;33620;52.340;5.984;2023-02-05T17:41:29;7.61;79.33
47861;HTU21D;33620;52.340;5.984;2023-02-05T17:44:15;7.62;79.23
47861;HTU21D;33620;52.340;5.984;2023-02-05T17:46:41;7.61;79.30
47861;HTU21D;33620;52.340;5.984;2023-02-05T17:49:07;7.61;79.35
47861;HTU21D;33620;52.340;5.984;2023-02-05T17:51:33;7.62;79.42
47861;HTU21D;33620;52.340;5.984;2023-02-05T17:53:58;7.59;79.44
47861;HTU21D;33620;52.340;5.984;2023-02-05T17:56:24;7.54;79.72
47861;HTU21D;33620;52.340;5.984;2023-02-05T17:58:50;7.55;79.81
47861;HTU21D;33620;52.340;5.984;2023-02-05T18:01:16;7.57;79.75
47861;HTU21D;33620;52.340;5.984;2023-02-05T18:03:42;7.59;79.78
47861;HTU21D;33620;52.340;5.984;2023-02-05T18:06:10;7.58;79.82
47861;HTU21D;33620;52.340;5.984;2023-02-05T18:08:36;7.58;79.83
47861;HTU21D;33620;52.340;5.984;2023-02-05T18:11:02;7.57;79.83